createdAt,value
2022-11-08T00:01:03.896Z,97184.03
2022-11-08T00:02:05.848Z,97184.22
2022-11-08T00:03:07.907Z,97184.72
2022-11-08T00:04:11.620Z,97186.03
2022-11-08T00:05:32.026Z,97191.84
2022-11-08T00:06:52.641Z,97181.94
2022-11-08T00:08:12.770Z,97188.25
2022-11-08T00:09:33.580Z,97186.28
2022-11-08T00:10:53.694Z,97185.47
2022-11-08T00:12:13.794Z,97183.50
2022-11-08T00:13:34.049Z,97179.75
2022-11-08T00:14:35.847Z,97183.69
2022-11-08T00:15:39.088Z,97182.09
2022-11-08T00:16:41.228Z,97180.13
2022-11-08T00:17:43.163Z,97182.19
2022-11-08T00:18:45.036Z,97175.56
2022-11-08T00:19:46.946Z,97181.56
2022-11-08T00:20:48.705Z,97183.69
2022-11-08T00:21:50.750Z,97185.13
2022-11-08T00:22:52.530Z,97184.94
2022-11-08T00:23:54.561Z,97186.75
2022-11-08T00:24:56.324Z,97185.94
2022-11-08T00:25:58.113Z,97193.72
2022-11-08T00:26:59.946Z,97187.91
2022-11-08T00:28:01.739Z,97185.31
2022-11-08T00:29:03.630Z,97186.91
2022-11-08T00:30:05.622Z,97187.94
2022-11-08T00:31:07.751Z,97187.78
2022-11-08T00:32:12.013Z,97187.59
2022-11-08T00:33:13.778Z,97191.16
2022-11-08T00:34:15.700Z,97188.75
2022-11-08T00:35:17.508Z,97188.56
2022-11-08T00:36:19.284Z,97184.03
2022-11-08T00:37:21.605Z,97185.88
2022-11-08T00:38:23.362Z,97187.25
2022-11-08T00:39:25.296Z,97192.97
2022-11-08T00:40:27.071Z,97196.72
2022-11-08T00:41:28.861Z,97183.91
2022-11-08T00:42:30.723Z,97195.88
2022-11-08T00:43:32.524Z,97196.19
2022-11-08T00:44:35.000Z,97199.88
2022-11-08T00:45:36.892Z,97194.00
2022-11-08T00:46:39.360Z,97198.69
2022-11-08T00:47:41.073Z,97199.78
2022-11-08T00:48:42.915Z,97194.06
2022-11-08T00:49:44.748Z,97193.09
2022-11-08T00:50:46.541Z,97196.19
2022-11-08T00:51:48.439Z,97192.78
2022-11-08T00:52:50.188Z,97198.94
2022-11-08T00:53:51.999Z,97201.97
2022-11-08T00:54:53.842Z,97199.69
2022-11-08T00:56:06.014Z,97203.63
2022-11-08T00:57:07.851Z,97202.69
2022-11-08T00:58:09.663Z,97203.16
2022-11-08T00:59:12.951Z,97200.06
2022-11-08T01:00:15.064Z,97202.81
2022-11-08T01:01:18.247Z,97198.31
2022-11-08T01:02:20.173Z,97203.03
2022-11-08T01:03:22.642Z,97202.91
2022-11-08T01:04:24.473Z,97195.75
2022-11-08T01:05:26.339Z,97204.81
2022-11-08T01:06:28.219Z,97196.88
2022-11-08T01:07:30.182Z,97196.88
2022-11-08T01:08:31.926Z,97190.25
2022-11-08T01:09:33.732Z,97197.03
2022-11-08T01:10:35.921Z,97197.84
2022-11-08T01:11:38.795Z,97195.88
2022-11-08T01:12:40.599Z,97197.34
2022-11-08T01:13:42.845Z,97193.75
2022-11-08T01:14:44.638Z,97195.03
2022-11-08T01:15:47.039Z,97199.88
2022-11-08T01:16:48.919Z,97196.94
2022-11-08T01:17:50.733Z,97187.03
2022-11-08T01:18:54.182Z,97189.78
2022-11-08T01:19:56.011Z,97188.00
2022-11-08T01:20:57.899Z,97193.00
2022-11-08T01:21:59.813Z,97184.97
2022-11-08T01:23:01.728Z,97189.69
2022-11-08T01:24:03.568Z,97187.56
2022-11-08T01:25:05.603Z,97183.81
2022-11-08T01:26:09.152Z,97192.22
2022-11-08T01:27:10.943Z,97182.47
2022-11-08T01:28:13.062Z,97182.47
2022-11-08T01:29:14.912Z,97185.88
2022-11-08T01:30:16.744Z,97179.56
2022-11-08T01:31:20.497Z,97185.94
2022-11-08T01:32:22.314Z,97179.19
2022-11-08T01:33:24.132Z,97177.72
2022-11-08T01:34:25.890Z,97178.72
2022-11-08T01:35:27.774Z,97184.41
2022-11-08T01:36:29.688Z,97173.69
2022-11-08T01:37:31.549Z,97177.56
2022-11-08T01:38:34.142Z,97178.34
2022-11-08T01:39:35.987Z,97173.84
2022-11-08T01:40:47.836Z,97176.28
2022-11-08T01:41:49.617Z,97171.75
2022-11-08T01:42:51.531Z,97170.56
2022-11-08T01:43:54.960Z,97165.22
2022-11-08T01:44:58.032Z,97159.22
2022-11-08T01:46:18.409Z,97161.66
2022-11-08T01:47:20.242Z,97167.72
2022-11-08T01:48:22.530Z,97163.66
2022-11-08T01:49:27.154Z,97151.84
2022-11-08T01:50:29.058Z,97155.22
2022-11-08T01:51:38.043Z,97151.84
2022-11-08T01:52:45.832Z,97156.91
2022-11-08T01:53:48.008Z,97156.44
2022-11-08T01:54:52.599Z,97157.44
2022-11-08T01:55:54.529Z,97152.88
2022-11-08T01:56:57.103Z,97157.72
2022-11-08T01:58:04.064Z,97155.16
2022-11-08T01:59:07.553Z,97150.78
2022-11-08T02:00:10.747Z,97147.06
2022-11-08T02:01:13.291Z,97146.69
2022-11-08T02:02:15.321Z,97138.75
2022-11-08T02:03:18.836Z,97155.75
2022-11-08T02:04:20.643Z,97135.00
2022-11-08T02:05:25.794Z,97143.47
2022-11-08T02:06:29.254Z,97133.47
2022-11-08T02:07:32.088Z,97138.34
2022-11-08T02:08:43.733Z,97138.69
2022-11-08T02:09:47.313Z,97132.69
2022-11-08T02:10:51.452Z,97134.31
2022-11-08T02:11:53.941Z,97131.09
2022-11-08T02:12:56.520Z,97124.63
2022-11-08T02:13:58.515Z,97128.66
2022-11-08T02:15:00.423Z,97127.84
2022-11-08T02:16:02.195Z,97124.63
2022-11-08T02:17:04.427Z,97121.03
2022-11-08T02:18:06.431Z,97125.72
2022-11-08T02:19:10.618Z,97120.88
2022-11-08T02:20:12.468Z,97118.44
2022-11-08T02:21:24.947Z,97125.44
2022-11-08T02:22:29.381Z,97123.00
2022-11-08T02:23:51.004Z,97122.53
2022-11-08T02:24:53.139Z,97125.44
2022-11-08T02:25:55.351Z,97115.06
2022-11-08T02:26:57.929Z,97116.53
2022-11-08T02:27:59.785Z,97108.28
2022-11-08T02:29:20.147Z,97110.88
2022-11-08T02:30:21.920Z,97115.09
2022-11-08T02:31:23.909Z,97118.03
2022-11-08T02:32:25.810Z,97119.97
2022-11-08T02:33:27.616Z,97120.97
2022-11-08T02:34:42.837Z,97111.56
2022-11-08T02:35:49.649Z,97108.53
2022-11-08T02:36:51.536Z,97113.19
2022-11-08T02:37:53.841Z,97117.06
2022-11-08T02:38:57.832Z,97107.31
2022-11-08T02:39:59.678Z,97099.84
2022-11-08T02:41:01.429Z,97107.91
2022-11-08T02:42:03.361Z,97113.56
2022-11-08T02:43:05.215Z,97107.59
2022-11-08T02:44:07.238Z,97110.63
2022-11-08T02:45:09.379Z,97106.44
2022-11-08T02:46:11.127Z,97105.25
2022-11-08T02:47:12.960Z,97106.91
2022-11-08T02:48:15.198Z,97104.94
2022-11-08T02:49:17.272Z,97094.09
2022-11-08T02:50:19.190Z,97096.84
2022-11-08T02:51:21.031Z,97095.59
2022-11-08T02:52:22.838Z,97094.31
2022-11-08T02:53:24.645Z,97091.41
2022-11-08T02:54:26.458Z,97090.50
2022-11-08T02:55:28.837Z,97084.97
2022-11-08T02:56:31.203Z,97087.28
2022-11-08T02:57:33.119Z,97088.59
2022-11-08T02:58:35.120Z,97089.56
2022-11-08T02:59:36.885Z,97089.56
2022-11-08T03:00:39.339Z,97092.66
2022-11-08T03:01:41.321Z,97088.53
2022-11-08T03:02:43.303Z,97077.69
2022-11-08T03:03:45.212Z,97086.41
2022-11-08T03:04:47.063Z,97084.81
2022-11-08T03:05:48.901Z,97082.50
2022-11-08T03:06:50.709Z,97082.81
2022-11-08T03:07:53.429Z,97084.47
2022-11-08T03:08:55.332Z,97084.19
2022-11-08T03:09:57.143Z,97084.34
2022-11-08T03:11:01.832Z,97083.19
2022-11-08T03:12:03.766Z,97082.56
2022-11-08T03:13:05.890Z,97084.97
2022-11-08T03:14:07.827Z,97084.00
2022-11-08T03:15:10.452Z,97087.56
2022-11-08T03:16:12.375Z,97089.00
2022-11-08T03:17:14.160Z,97082.03
2022-11-08T03:18:16.303Z,97086.25
2022-11-08T03:19:18.289Z,97084.13
2022-11-08T03:20:20.044Z,97083.16
2022-11-08T03:21:21.920Z,97081.19
2022-11-08T03:22:23.786Z,97084.13
2022-11-08T03:23:25.628Z,97078.97
2022-11-08T03:24:27.485Z,97081.38
2022-11-08T03:25:29.810Z,97080.22
2022-11-08T03:26:32.279Z,97080.22
2022-11-08T03:27:36.942Z,97076.66
2022-11-08T03:28:38.847Z,97077.28
2022-11-08T03:29:40.684Z,97089.91
2022-11-08T03:30:42.502Z,97082.19
2022-11-08T03:31:44.214Z,97078.78
2022-11-08T03:32:47.122Z,97077.97
2022-11-08T03:33:48.976Z,97072.16
2022-11-08T03:34:50.848Z,97075.38
2022-11-08T03:35:53.311Z,97075.03
2022-11-08T03:36:55.093Z,97079.06
2022-11-08T03:37:57.508Z,97070.19
2022-11-08T03:38:59.563Z,97064.41
2022-11-08T03:40:02.319Z,97070.22
2022-11-08T03:41:04.250Z,97065.09
2022-11-08T03:42:06.647Z,97064.78
2022-11-08T03:43:08.463Z,97065.91
2022-11-08T03:44:10.432Z,97060.72
2022-11-08T03:45:12.573Z,97059.28
2022-11-08T03:46:14.435Z,97060.72
2022-11-08T03:47:16.244Z,97059.44
2022-11-08T03:48:19.263Z,97060.72
2022-11-08T03:49:21.474Z,97058.75
2022-11-08T03:50:23.352Z,97057.97
2022-11-08T03:51:25.280Z,97062.22
2022-11-08T03:52:27.017Z,97056.41
2022-11-08T03:53:28.942Z,97059.63
2022-11-08T03:54:30.785Z,97067.03
2022-11-08T03:55:32.659Z,97055.75
2022-11-08T03:56:34.476Z,97056.44
2022-11-08T03:57:36.865Z,97048.47
2022-11-08T03:58:38.813Z,97059.31
2022-11-08T03:59:40.553Z,97058.03
2022-11-08T04:00:42.441Z,97055.13
2022-11-08T04:01:44.499Z,97052.88
2022-11-08T04:02:46.546Z,97048.00
2022-11-08T04:03:48.343Z,97047.53
2022-11-08T04:04:50.081Z,97041.06
2022-11-08T04:05:52.010Z,97054.66
2022-11-08T04:06:53.894Z,97045.09
2022-11-08T04:07:55.633Z,97042.19
2022-11-08T04:08:57.427Z,97040.72
2022-11-08T04:09:59.243Z,97046.09
2022-11-08T04:11:19.536Z,97037.78
2022-11-08T04:12:40.324Z,97041.97
2022-11-08T04:14:00.451Z,97032.13
2022-11-08T04:15:17.145Z,97029.88
2022-11-08T04:16:18.963Z,97025.66
2022-11-08T04:17:40.734Z,97037.31
2022-11-08T04:19:01.201Z,97028.91
2022-11-08T04:20:21.304Z,97027.50
2022-11-08T04:21:23.221Z,97022.97
2022-11-08T04:22:25.222Z,97026.06
2022-11-08T04:23:27.589Z,97022.50
2022-11-08T04:24:29.395Z,97023.78
2022-11-08T04:25:34.980Z,97018.94
2022-11-08T04:26:37.418Z,97015.69
2022-11-08T04:27:39.230Z,97018.28
2022-11-08T04:28:41.660Z,97016.84
2022-11-08T04:29:43.456Z,97018.81
2022-11-08T04:30:45.274Z,97021.38
2022-11-08T04:31:47.046Z,97017.31
2022-11-08T04:32:49.029Z,97017.28
2022-11-08T04:33:50.843Z,97017.63
2022-11-08T04:34:52.652Z,97013.06
2022-11-08T04:35:54.551Z,97017.28
2022-11-08T04:36:56.475Z,97021.84
2022-11-08T04:37:59.486Z,97015.53
2022-11-08T04:39:01.259Z,97019.28
2022-11-08T04:40:03.092Z,97021.22
2022-11-08T04:41:09.618Z,97014.25
2022-11-08T04:42:11.446Z,97020.41
2022-11-08T04:43:13.393Z,97016.31
2022-11-08T04:44:16.104Z,97021.16
2022-11-08T04:45:18.053Z,97018.88
2022-11-08T04:46:24.750Z,97012.44
2022-11-08T04:47:27.890Z,97007.91
2022-11-08T04:48:30.298Z,97010.16
2022-11-08T04:49:32.063Z,97014.34
2022-11-08T04:50:34.198Z,97016.63
2022-11-08T04:51:36.017Z,97014.50
2022-11-08T04:52:37.872Z,97018.88
2022-11-08T04:53:39.775Z,97016.44
2022-11-08T04:54:45.236Z,97009.66
2022-11-08T04:55:46.958Z,97015.47
2022-11-08T04:56:48.903Z,97018.88
2022-11-08T04:57:50.683Z,97018.88
2022-11-08T04:58:53.802Z,97015.47
2022-11-08T04:59:55.533Z,97018.22
2022-11-08T05:00:59.738Z,97015.34
2022-11-08T05:02:01.776Z,97011.00
2022-11-08T05:03:06.607Z,97024.59
2022-11-08T05:04:09.966Z,97015.66
2022-11-08T05:05:11.747Z,97018.25
2022-11-08T05:06:15.625Z,97016.66
2022-11-08T05:07:17.496Z,97016.66
2022-11-08T05:08:19.685Z,97013.72
2022-11-08T05:09:21.861Z,97019.88
2022-11-08T05:10:23.705Z,97014.09
2022-11-08T05:11:26.843Z,97022.03
2022-11-08T05:12:28.712Z,97013.09
2022-11-08T05:13:31.204Z,97014.91
2022-11-08T05:14:33.077Z,97017.81
2022-11-08T05:15:36.022Z,97019.28
2022-11-08T05:16:37.940Z,97012.31
2022-11-08T05:17:39.761Z,97012.16
2022-11-08T05:18:42.195Z,96999.69
2022-11-08T05:20:02.696Z,97014.56
2022-11-08T05:21:22.851Z,97005.19
2022-11-08T05:22:42.981Z,97005.66
2022-11-08T05:23:45.380Z,97008.25
2022-11-08T05:24:47.188Z,96998.84
2022-11-08T05:25:49.145Z,97009.22
2022-11-08T05:26:51.008Z,97000.34
2022-11-08T05:27:52.842Z,97001.16
2022-11-08T05:28:54.636Z,96993.22
2022-11-08T05:29:56.452Z,96998.69
2022-11-08T05:30:58.460Z,97003.06
2022-11-08T05:32:00.222Z,96998.56
2022-11-08T05:33:02.028Z,97000.34
2022-11-08T05:34:04.294Z,96998.56
2022-11-08T05:35:06.410Z,96995.34
2022-11-08T05:36:10.904Z,96996.78
2022-11-08T05:37:12.800Z,96990.47
2022-11-08T05:38:15.432Z,96992.91
2022-11-08T05:39:17.697Z,96999.25
2022-11-08T05:40:19.523Z,96997.28
2022-11-08T05:41:23.195Z,96996.78
2022-11-08T05:42:25.024Z,96992.59
2022-11-08T05:43:26.778Z,96995.81
2022-11-08T05:44:28.792Z,96998.88
2022-11-08T05:45:30.699Z,96989.69
2022-11-08T05:46:32.688Z,96993.44
2022-11-08T05:47:34.742Z,96997.63
2022-11-08T05:48:36.582Z,96993.59
2022-11-08T05:49:38.403Z,96993.91
2022-11-08T05:50:40.386Z,96991.47
2022-11-08T05:51:42.276Z,96992.13
2022-11-08T05:52:44.118Z,96999.09
2022-11-08T05:53:47.282Z,96996.00
2022-11-08T05:54:49.052Z,96996.34
2022-11-08T05:55:50.793Z,96986.63
2022-11-08T05:56:52.707Z,96996.66
2022-11-08T05:57:54.459Z,96994.06
2022-11-08T05:58:56.260Z,96990.31
2022-11-08T05:59:58.062Z,97001.16
2022-11-08T06:01:00.715Z,96997.78
2022-11-08T06:02:02.664Z,96991.13
2022-11-08T06:03:05.225Z,96994.06
2022-11-08T06:04:07.116Z,96996.97
2022-11-08T06:05:09.465Z,96987.44
2022-11-08T06:06:12.679Z,96996.97
2022-11-08T06:07:14.548Z,96996.00
2022-11-08T06:08:16.316Z,96995.53
2022-11-08T06:09:18.113Z,96998.75
2022-11-08T06:10:19.969Z,97003.31
2022-11-08T06:11:25.881Z,96998.75
2022-11-08T06:12:27.756Z,97000.38
2022-11-08T06:13:29.836Z,97001.50
2022-11-08T06:14:32.080Z,97010.41
2022-11-08T06:15:33.876Z,97004.06
2022-11-08T06:16:35.683Z,97010.41
2022-11-08T06:17:37.582Z,97007.66
2022-11-08T06:18:39.959Z,97005.34
2022-11-08T06:19:41.806Z,97012.03
2022-11-08T06:20:43.590Z,97008.31
2022-11-08T06:21:45.321Z,97005.56
2022-11-08T06:22:47.137Z,97006.38
2022-11-08T06:23:54.721Z,97009.59
2022-11-08T06:24:57.918Z,97014.78
2022-11-08T06:25:59.916Z,97018.00
2022-11-08T06:27:01.737Z,97005.69
2022-11-08T06:28:03.700Z,97008.41
2022-11-08T06:29:05.530Z,97007.78
2022-11-08T06:30:07.712Z,97011.34
2022-11-08T06:31:10.094Z,97015.53
2022-11-08T06:32:11.955Z,97008.91
2022-11-08T06:33:13.844Z,97014.09
2022-11-08T06:34:15.637Z,97008.91
2022-11-08T06:35:17.459Z,97014.63
2022-11-08T06:36:21.538Z,97011.84
2022-11-08T06:37:23.376Z,97017.84
2022-11-08T06:38:25.390Z,97011.84
2022-11-08T06:39:27.296Z,97018.00
2022-11-08T06:40:29.229Z,97015.41
2022-11-08T06:41:31.196Z,97022.50
2022-11-08T06:42:33.079Z,97025.25
2022-11-08T06:43:34.970Z,97027.22
2022-11-08T06:44:36.998Z,97020.06
2022-11-08T06:45:39.047Z,97029.28
2022-11-08T06:46:40.785Z,97029.28
2022-11-08T06:47:42.530Z,97026.69
2022-11-08T06:48:44.646Z,97025.38
2022-11-08T06:49:46.526Z,97027.34
2022-11-08T06:50:48.691Z,97026.38
2022-11-08T06:51:51.119Z,97022.50
2022-11-08T06:52:58.737Z,97020.72
2022-11-08T06:54:00.717Z,97024.94
2022-11-08T06:55:02.540Z,97024.09
2022-11-08T06:56:04.486Z,97020.88
2022-11-08T06:57:06.266Z,97026.88
2022-11-08T06:58:08.074Z,97020.56
2022-11-08T06:59:10.466Z,97025.56
2022-11-08T07:00:12.680Z,97022.16
2022-11-08T07:01:14.454Z,97023.78
2022-11-08T07:02:16.458Z,97022.97
2022-11-08T07:03:18.735Z,97014.88
2022-11-08T07:04:21.090Z,97012.13
2022-11-08T07:05:23.456Z,97014.09
2022-11-08T07:06:25.401Z,97009.72
2022-11-08T07:07:27.162Z,97013.09
2022-11-08T07:08:28.935Z,97012.16
2022-11-08T07:09:30.746Z,97013.31
2022-11-08T07:10:33.384Z,97011.34
2022-11-08T07:11:35.376Z,97011.78
2022-11-08T07:12:37.191Z,97006.63
2022-11-08T07:13:38.968Z,97011.00
2022-11-08T07:14:40.740Z,97011.47
2022-11-08T07:15:42.586Z,97012.63
2022-11-08T07:16:44.580Z,97013.09
2022-11-08T07:17:46.367Z,97010.19
2022-11-08T07:18:48.261Z,97001.91
2022-11-08T07:19:50.058Z,97008.22
2022-11-08T07:20:52.651Z,97010.78
2022-11-08T07:21:54.567Z,97005.63
2022-11-08T07:22:57.098Z,97004.34
2022-11-08T07:23:59.047Z,97008.88
2022-11-08T07:25:00.896Z,97005.50
2022-11-08T07:26:05.846Z,97008.25
2022-11-08T07:27:07.696Z,97001.78
2022-11-08T07:28:14.284Z,97008.56
2022-11-08T07:29:16.401Z,97008.56
2022-11-08T07:30:18.658Z,97000.81
2022-11-08T07:31:20.598Z,97005.34
2022-11-08T07:32:22.435Z,97001.16
2022-11-08T07:33:24.264Z,97001.63
2022-11-08T07:34:26.043Z,96999.84
2022-11-08T07:35:28.571Z,97005.03
2022-11-08T07:36:30.345Z,97004.38
2022-11-08T07:37:33.283Z,97002.75
2022-11-08T07:38:35.051Z,96999.03
2022-11-08T07:39:36.794Z,97002.72
2022-11-08T07:40:38.563Z,97004.81
2022-11-08T07:41:40.424Z,97000.44
2022-11-08T07:43:11.274Z,96998.50
2022-11-08T07:44:04.753Z,96994.59
2022-11-08T07:45:07.361Z,96994.59
2022-11-08T07:46:11.259Z,96987.81
2022-11-08T07:47:13.090Z,96991.69
2022-11-08T07:48:14.985Z,96996.06
2022-11-08T07:49:16.736Z,96996.22
2022-11-08T07:50:18.514Z,96993.63
2022-11-08T07:51:20.266Z,96995.25
2022-11-08T07:52:22.152Z,97000.09
2022-11-08T07:53:24.415Z,97001.22
2022-11-08T07:54:26.114Z,96997.00
2022-11-08T07:55:28.063Z,96996.69
2022-11-08T07:56:29.841Z,96995.56
2022-11-08T07:57:31.632Z,96993.59
2022-11-08T07:58:34.746Z,96997.47
2022-11-08T07:59:36.534Z,96997.41
2022-11-08T08:00:39.508Z,97000.91
2022-11-08T08:01:41.482Z,96997.19
2022-11-08T08:02:43.563Z,97002.81
2022-11-08T08:03:45.630Z,96999.91
2022-11-08T08:04:47.449Z,97002.97
2022-11-08T08:05:55.387Z,96996.47
2022-11-08T08:07:00.017Z,96998.69
2022-11-08T08:08:02.636Z,96996.56
2022-11-08T08:09:04.719Z,96993.28
2022-11-08T08:10:06.737Z,96992.56
2022-11-08T08:11:08.522Z,96990.28
2022-11-08T08:12:10.301Z,96987.78
2022-11-08T08:13:12.094Z,96987.78
2022-11-08T08:14:13.938Z,96990.22
2022-11-08T08:15:15.795Z,96987.25
2022-11-08T08:16:17.677Z,96981.72
2022-11-08T08:17:19.483Z,96991.75
2022-11-08T08:18:22.097Z,96992.38
2022-11-08T08:19:23.909Z,96991.41
2022-11-08T08:20:25.731Z,96997.03
2022-11-08T08:21:27.533Z,96984.69
2022-11-08T08:22:29.663Z,96989.53
2022-11-08T08:23:31.460Z,96992.22
2022-11-08T08:24:33.412Z,96988.28
2022-11-08T08:25:35.315Z,96981.50
2022-11-08T08:26:37.253Z,96992.50
2022-11-08T08:27:39.407Z,96985.19
2022-11-08T08:28:41.322Z,96988.03
2022-11-08T08:29:43.211Z,96980.25
2022-11-08T08:30:44.994Z,96980.72
2022-11-08T08:31:46.836Z,96985.34
2022-11-08T08:33:02.096Z,96988.06
2022-11-08T08:34:10.946Z,96988.16
2022-11-08T08:35:13.217Z,96981.00
2022-11-08T08:36:14.974Z,96974.38
2022-11-08T08:37:17.572Z,96979.81
2022-11-08T08:38:19.433Z,96981.06
2022-11-08T08:39:21.309Z,96984.28
2022-11-08T08:40:23.135Z,96983.94
2022-11-08T08:41:24.976Z,96979.53
2022-11-08T08:42:26.778Z,96980.16
2022-11-08T08:43:29.275Z,96976.41
2022-11-08T08:44:31.140Z,96971.50
2022-11-08T08:45:34.004Z,96974.59
2022-11-08T08:46:35.924Z,96976.47
2022-11-08T08:47:37.822Z,96973.31
2022-11-08T08:48:39.685Z,96968.41
2022-11-08T08:49:41.517Z,96972.41
2022-11-08T08:50:43.363Z,96975.28
2022-11-08T08:51:45.262Z,96970.34
2022-11-08T08:52:47.153Z,96970.97
2022-11-08T08:53:48.984Z,96976.31
2022-11-08T08:54:50.818Z,96972.19
2022-11-08T08:55:53.102Z,96969.47
2022-11-08T08:56:54.956Z,96972.09
2022-11-08T08:57:56.869Z,96976.47
2022-11-08T09:01:42.763Z,96968.09
2022-11-08T09:02:45.035Z,96966.34
2022-11-08T09:03:47.353Z,96960.25
2022-11-08T09:04:49.238Z,96965.50
2022-11-08T09:05:51.194Z,96959.13
2022-11-08T09:06:53.685Z,96965.19
2022-11-08T09:07:56.142Z,96962.84
2022-11-08T09:08:57.976Z,96955.06
2022-11-08T09:09:59.752Z,96954.94
2022-11-08T09:11:01.667Z,96960.19
2022-11-08T09:12:03.917Z,96955.59
2022-11-08T09:13:05.894Z,96958.75
2022-11-08T09:14:07.953Z,96953.38
2022-11-08T09:15:10.636Z,96958.19
2022-11-08T09:16:14.250Z,96949.63
2022-11-08T09:17:16.225Z,96950.09
2022-11-08T09:18:18.156Z,96952.31
2022-11-08T09:19:20.022Z,96955.34
2022-11-08T09:20:22.376Z,96955.13
2022-11-08T09:21:24.410Z,96946.34
2022-11-08T09:22:26.239Z,96962.00
2022-11-08T09:23:28.174Z,96957.22
2022-11-08T09:24:30.032Z,96953.84
2022-11-08T09:25:32.367Z,96960.88
2022-11-08T09:26:34.235Z,96953.47
2022-11-08T09:27:36.241Z,96954.47
2022-11-08T09:28:38.273Z,96957.69
2022-11-08T09:29:40.193Z,96960.97
2022-11-08T09:30:41.993Z,96955.16
2022-11-08T09:31:43.874Z,96946.91
2022-11-08T09:33:00.491Z,96944.31
2022-11-08T09:35:10.096Z,96941.38
2022-11-08T09:36:13.550Z,96948.41
2022-11-08T09:37:15.418Z,96941.44
2022-11-08T09:38:17.957Z,96937.84
2022-11-08T09:39:20.384Z,96943.50
2022-11-08T09:40:33.269Z,96943.31
2022-11-08T09:41:55.639Z,96941.13
2022-11-08T09:43:06.651Z,96949.16
2022-11-08T09:44:15.078Z,96944.97
2022-11-08T09:45:22.037Z,96939.56
2022-11-08T09:46:29.075Z,96934.75
2022-11-08T09:47:32.432Z,96941.00
2022-11-08T09:48:42.417Z,96933.97
2022-11-08T09:49:49.500Z,96940.00
2022-11-08T09:50:52.838Z,96935.56
2022-11-08T09:51:54.739Z,96932.56
2022-11-08T09:53:14.875Z,96931.16
2022-11-08T09:54:21.591Z,96925.94
2022-11-08T09:55:26.971Z,96933.19
2022-11-08T09:56:30.919Z,96937.59
2022-11-08T09:57:37.840Z,96926.75
2022-11-08T09:59:02.392Z,96927.53
2022-11-08T10:00:05.838Z,96924.72
2022-11-08T10:01:12.270Z,96914.09
2022-11-08T10:02:18.816Z,96921.88
2022-11-08T10:03:23.528Z,96913.84
2022-11-08T10:04:26.925Z,96917.44
2022-11-08T10:05:35.161Z,96919.81
2022-11-08T10:06:52.276Z,96920.44
2022-11-08T10:07:59.958Z,96915.41
2022-11-08T10:09:12.298Z,96916.16
2022-11-08T10:10:32.493Z,96911.31
2022-11-08T10:11:40.079Z,96912.88
2022-11-08T10:12:58.778Z,96921.88
2022-11-08T10:14:09.861Z,96912.22
2022-11-08T10:15:14.734Z,96910.34
2022-11-08T10:16:23.354Z,96906.09
2022-11-08T10:17:36.779Z,96914.19
2022-11-08T10:18:52.950Z,96909.72
2022-11-08T10:20:07.079Z,96909.47
2022-11-08T10:21:27.877Z,96916.66
2022-11-08T10:22:36.329Z,96906.53
2022-11-08T10:23:45.649Z,96908.31
2022-11-08T10:24:58.566Z,96915.31
2022-11-08T10:26:01.503Z,96898.97
2022-11-08T10:27:06.091Z,96900.31
2022-11-08T10:28:08.530Z,96904.31
2022-11-08T10:29:17.772Z,96896.47
2022-11-08T10:30:21.047Z,96899.25
2022-11-08T10:31:22.991Z,96905.47
2022-11-08T10:32:29.087Z,96902.00
2022-11-08T10:33:45.814Z,96898.38
2022-11-08T10:34:55.631Z,96902.97
2022-11-08T10:36:02.450Z,96899.91
2022-11-08T10:37:06.920Z,96893.81
2022-11-08T10:38:18.226Z,96889.13
2022-11-08T10:39:28.555Z,96887.47
2022-11-08T10:40:33.372Z,96890.38
2022-11-08T10:41:46.015Z,96892.13
2022-11-08T10:42:52.118Z,96881.28
2022-11-08T10:43:57.717Z,96888.09
2022-11-08T10:44:59.585Z,96881.19
2022-11-08T10:46:01.941Z,96879.81
2022-11-08T10:47:06.138Z,96875.31
2022-11-08T10:48:10.408Z,96870.66
2022-11-08T10:49:17.147Z,96872.03
2022-11-08T10:50:21.222Z,96879.44
2022-11-08T10:51:23.048Z,96869.34
2022-11-08T10:52:24.905Z,96871.69
2022-11-08T10:53:27.753Z,96872.41
2022-11-08T10:54:48.302Z,96868.34
2022-11-08T10:55:52.220Z,96870.88
2022-11-08T10:56:56.053Z,96877.63
2022-11-08T10:57:57.942Z,96864.06
2022-11-08T10:58:59.840Z,96869.66
2022-11-08T11:00:19.999Z,96865.59
2022-11-08T11:01:23.521Z,96868.22
2022-11-08T11:02:29.729Z,96865.50
2022-11-08T11:03:32.076Z,96859.03
2022-11-08T11:04:35.198Z,96863.00
2022-11-08T11:05:38.290Z,96861.31
2022-11-08T11:06:40.228Z,96858.03
2022-11-08T11:07:44.540Z,96863.16
2022-11-08T11:08:55.391Z,96850.19
2022-11-08T11:09:57.221Z,96859.00
2022-11-08T11:11:17.768Z,96860.13
2022-11-08T11:12:19.654Z,96855.25
2022-11-08T11:13:24.104Z,96850.91
2022-11-08T11:14:26.374Z,96854.22
2022-11-08T11:15:32.156Z,96857.53
2022-11-08T11:16:35.360Z,96856.28
2022-11-08T11:17:40.022Z,96855.38
2022-11-08T11:18:51.021Z,96854.47
2022-11-08T11:19:56.404Z,96850.38
2022-11-08T11:20:58.241Z,96851.50
2022-11-08T11:22:07.837Z,96848.66
2022-11-08T11:23:11.376Z,96852.56
2022-11-08T11:24:19.485Z,96850.84
2022-11-08T11:25:23.799Z,96845.72
2022-11-08T11:26:30.149Z,96840.91
2022-11-08T11:27:34.964Z,96839.34
2022-11-08T11:28:36.769Z,96835.53
2022-11-08T11:29:39.289Z,96836.94
2022-11-08T11:30:42.418Z,96838.50
2022-11-08T11:31:45.924Z,96839.66
2022-11-08T11:33:02.890Z,96835.53
2022-11-08T11:34:19.666Z,96830.75
2022-11-08T11:35:21.592Z,96832.09
2022-11-08T11:36:24.957Z,96830.38
2022-11-08T11:37:45.621Z,96825.69
2022-11-08T11:38:47.338Z,96826.13
2022-11-08T11:39:55.663Z,96824.53
2022-11-08T11:41:02.402Z,96824.53
2022-11-08T11:42:31.121Z,96818.00
2022-11-08T11:43:49.936Z,96816.28
2022-11-08T11:44:54.888Z,96807.28
2022-11-08T11:45:59.434Z,96815.47
2022-11-08T11:47:21.442Z,96808.84
2022-11-08T11:48:23.334Z,96810.22
2022-11-08T11:49:26.128Z,96806.41
2022-11-08T11:50:35.498Z,96804.28
2022-11-08T11:51:37.457Z,96803.22
2022-11-08T11:52:40.239Z,96805.78
2022-11-08T11:53:47.402Z,96796.66
2022-11-08T11:54:50.657Z,96807.72
2022-11-08T11:56:11.241Z,96803.03
2022-11-08T11:57:19.309Z,96794.44
2022-11-08T11:58:24.149Z,96795.25
2022-11-08T11:59:44.513Z,96791.13
2022-11-08T12:00:51.698Z,96795.13
2022-11-08T12:01:54.208Z,96793.75
2022-11-08T12:03:16.928Z,96796.19
2022-11-08T12:04:24.759Z,96795.63
2022-11-08T12:05:32.439Z,96793.13
2022-11-08T12:06:45.269Z,96793.47
2022-11-08T12:07:53.572Z,96790.50
2022-11-08T12:09:15.995Z,96787.09
2022-11-08T12:10:23.755Z,96783.09
2022-11-08T12:11:44.307Z,96783.97
2022-11-08T12:12:46.198Z,96788.88
2022-11-08T12:13:54.664Z,96788.72
2022-11-08T12:15:00.695Z,96782.53
2022-11-08T12:16:02.491Z,96780.81
2022-11-08T12:17:22.841Z,96780.53
2022-11-08T12:18:44.065Z,96778.59
2022-11-08T12:20:07.502Z,96779.38
2022-11-08T12:21:21.172Z,96780.50
2022-11-08T12:22:23.009Z,96773.28
2022-11-08T12:23:39.878Z,96773.28
2022-11-08T12:24:41.799Z,96779.81
2022-11-08T12:25:43.609Z,96769.38
2022-11-08T12:26:57.205Z,96770.97
2022-11-08T12:28:11.318Z,96770.03
2022-11-08T12:29:23.182Z,96769.22
2022-11-08T12:30:37.234Z,96767.41
2022-11-08T12:31:45.021Z,96760.75
2022-11-08T12:32:49.850Z,96763.16
2022-11-08T12:33:56.714Z,96756.88
2022-11-08T12:35:11.606Z,96752.97
2022-11-08T12:36:24.499Z,96750.41
2022-11-08T12:37:29.243Z,96751.59
2022-11-08T12:38:51.300Z,96745.81
2022-11-08T12:39:59.843Z,96744.81